sensor_id;sensor_type;location;lat;lon;timestamp;temperature;humidity
50955;DHT22;36966;48.064;-0.792;2023-04-29T00:00:35;20.20;57.00
50955;DHT22;36966;48.064;-0.792;2023-04-29T00:02:54;20.20;57.10
50955;DHT22;36966;48.064;-0.792;2023-04-29T00:05:13;20.20;57.10
50955;DHT22;36966;48.064;-0.792;2023-04-29T00:07:33;20.20;57.10
50955;DHT22;36966;48.064;-0.792;2023-04-29T00:09:52;20.10;57.10
50955;DHT22;36966;48.064;-0.792;2023-04-29T00:12:11;20.20;57.00
50955;DHT22;36966;48.064;-0.792;2023-04-29T00:14:30;20.10;57.00
50955;DHT22;36966;48.064;-0.792;2023-04-29T00:16:50;20.10;57.10
50955;DHT22;36966;48.064;-0.792;2023-04-29T00:19:09;20.10;57.10
50955;DHT22;36966;48.064;-0.792;2023-04-29T00:21:29;20.10;57.10
50955;DHT22;36966;48.064;-0.792;2023-04-29T00:23:48;20.10;57.10
50955;DHT22;36966;48.064;-0.792;2023-04-29T00:26:07;20.00;57.00
50955;DHT22;36966;48.064;-0.792;2023-04-29T00:28:26;20.10;57.10
50955;DHT22;36966;48.064;-0.792;2023-04-29T00:30:46;20.00;57.00
50955;DHT22;36966;48.064;-0.792;2023-04-29T00:33:05;20.00;57.10
50955;DHT22;36966;48.064;-0.792;2023-04-29T00:35:24;20.00;57.00
50955;DHT22;36966;48.064;-0.792;2023-04-29T00:37:44;20.00;57.10
50955;DHT22;36966;48.064;-0.792;2023-04-29T00:40:04;20.00;57.10
50955;DHT22;36966;48.064;-0.792;2023-04-29T00:42:24;20.00;57.10
50955;DHT22;36966;48.064;-0.792;2023-04-29T00:44:43;20.00;57.10
50955;DHT22;36966;48.064;-0.792;2023-04-29T00:47:03;19.90;57.20
50955;DHT22;36966;48.064;-0.792;2023-04-29T00:49:22;19.90;57.10
50955;DHT22;36966;48.064;-0.792;2023-04-29T00:51:42;19.90;57.10
50955;DHT22;36966;48.064;-0.792;2023-04-29T00:54:03;19.90;57.10
50955;DHT22;36966;48.064;-0.792;2023-04-29T00:56:22;19.90;57.20
50955;DHT22;36966;48.064;-0.792;2023-04-29T00:58:42;19.80;57.20
50955;DHT22;36966;48.064;-0.792;2023-04-29T01:01:07;19.90;57.20
50955;DHT22;36966;48.064;-0.792;2023-04-29T01:03:29;19.90;57.20
50955;DHT22;36966;48.064;-0.792;2023-04-29T01:05:52;19.80;57.10
50955;DHT22;36966;48.064;-0.792;2023-04-29T01:10:49;19.80;57.20
50955;DHT22;36966;48.064;-0.792;2023-04-29T01:13:22;19.70;57.20
50955;DHT22;36966;48.064;-0.792;2023-04-29T01:18:09;19.80;57.20
50955;DHT22;36966;48.064;-0.792;2023-04-29T01:20:29;19.80;57.20
50955;DHT22;36966;48.064;-0.792;2023-04-29T01:22:49;19.70;57.20
50955;DHT22;36966;48.064;-0.792;2023-04-29T01:25:08;19.70;57.20
50955;DHT22;36966;48.064;-0.792;2023-04-29T01:27:31;19.70;57.20
50955;DHT22;36966;48.064;-0.792;2023-04-29T01:32:36;19.70;57.10
50955;DHT22;36966;48.064;-0.792;2023-04-29T01:34:59;19.70;57.10
50955;DHT22;36966;48.064;-0.792;2023-04-29T01:37:24;19.70;57.10
50955;DHT22;36966;48.064;-0.792;2023-04-29T01:44:29;19.70;57.10
50955;DHT22;36966;48.064;-0.792;2023-04-29T01:46:50;19.70;57.10
50955;DHT22;36966;48.064;-0.792;2023-04-29T01:49:11;19.70;57.10
50955;DHT22;36966;48.064;-0.792;2023-04-29T01:51:30;19.70;57.10
50955;DHT22;36966;48.064;-0.792;2023-04-29T01:53:52;19.70;57.10
50955;DHT22;36966;48.064;-0.792;2023-04-29T01:56:11;19.60;57.10
50955;DHT22;36966;48.064;-0.792;2023-04-29T01:58:30;19.60;57.10
50955;DHT22;36966;48.064;-0.792;2023-04-29T02:00:50;19.60;57.10
50955;DHT22;36966;48.064;-0.792;2023-04-29T02:03:09;19.60;57.00
50955;DHT22;36966;48.064;-0.792;2023-04-29T02:05:28;19.60;57.00
50955;DHT22;36966;48.064;-0.792;2023-04-29T02:07:52;19.60;57.00
50955;DHT22;36966;48.064;-0.792;2023-04-29T02:10:11;19.60;57.10
50955;DHT22;36966;48.064;-0.792;2023-04-29T02:12:31;19.50;57.00
50955;DHT22;36966;48.064;-0.792;2023-04-29T02:14:51;19.50;57.00
50955;DHT22;36966;48.064;-0.792;2023-04-29T02:17:11;19.50;57.00
50955;DHT22;36966;48.064;-0.792;2023-04-29T02:19:30;19.50;57.00
50955;DHT22;36966;48.064;-0.792;2023-04-29T02:21:49;19.50;57.00
50955;DHT22;36966;48.064;-0.792;2023-04-29T02:24:08;19.50;57.00
50955;DHT22;36966;48.064;-0.792;2023-04-29T02:26:27;19.50;57.00
50955;DHT22;36966;48.064;-0.792;2023-04-29T02:28:47;19.50;57.00
50955;DHT22;36966;48.064;-0.792;2023-04-29T02:31:06;19.50;57.00
50955;DHT22;36966;48.064;-0.792;2023-04-29T02:33:25;19.50;57.00
50955;DHT22;36966;48.064;-0.792;2023-04-29T02:35:44;19.40;57.00
50955;DHT22;36966;48.064;-0.792;2023-04-29T02:38:04;19.40;56.90
50955;DHT22;36966;48.064;-0.792;2023-04-29T02:40:23;19.40;57.00
50955;DHT22;36966;48.064;-0.792;2023-04-29T02:42:43;19.40;57.00
50955;DHT22;36966;48.064;-0.792;2023-04-29T02:45:03;19.40;57.00
50955;DHT22;36966;48.064;-0.792;2023-04-29T02:47:22;19.40;57.00
50955;DHT22;36966;48.064;-0.792;2023-04-29T02:49:41;19.40;57.00
50955;DHT22;36966;48.064;-0.792;2023-04-29T02:52:01;19.40;57.00
50955;DHT22;36966;48.064;-0.792;2023-04-29T02:54:20;19.40;57.00
50955;DHT22;36966;48.064;-0.792;2023-04-29T02:56:39;19.40;57.00
50955;DHT22;36966;48.064;-0.792;2023-04-29T02:58:58;19.40;57.00
50955;DHT22;36966;48.064;-0.792;2023-04-29T03:01:18;19.40;57.00
50955;DHT22;36966;48.064;-0.792;2023-04-29T03:03:37;19.40;57.00
50955;DHT22;36966;48.064;-0.792;2023-04-29T03:05:58;19.40;57.00
50955;DHT22;36966;48.064;-0.792;2023-04-29T03:08:17;19.40;57.00
50955;DHT22;36966;48.064;-0.792;2023-04-29T03:10:37;19.40;57.00
50955;DHT22;36966;48.064;-0.792;2023-04-29T03:12:57;19.30;57.00
50955;DHT22;36966;48.064;-0.792;2023-04-29T03:15:16;19.30;57.00
50955;DHT22;36966;48.064;-0.792;2023-04-29T03:17:36;19.30;57.10
50955;DHT22;36966;48.064;-0.792;2023-04-29T03:19:55;19.30;57.10
50955;DHT22;36966;48.064;-0.792;2023-04-29T03:22:15;19.30;57.00
50955;DHT22;36966;48.064;-0.792;2023-04-29T03:24:34;19.30;57.00
50955;DHT22;36966;48.064;-0.792;2023-04-29T03:26:53;19.30;57.00
50955;DHT22;36966;48.064;-0.792;2023-04-29T03:29:13;19.30;57.00
50955;DHT22;36966;48.064;-0.792;2023-04-29T03:31:32;19.30;57.00
50955;DHT22;36966;48.064;-0.792;2023-04-29T03:33:52;19.30;57.00
50955;DHT22;36966;48.064;-0.792;2023-04-29T03:36:11;19.30;57.00
50955;DHT22;36966;48.064;-0.792;2023-04-29T03:38:31;19.30;57.00
50955;DHT22;36966;48.064;-0.792;2023-04-29T03:40:50;19.20;57.00
50955;DHT22;36966;48.064;-0.792;2023-04-29T03:43:09;19.20;57.00
50955;DHT22;36966;48.064;-0.792;2023-04-29T03:45:29;19.20;57.00
50955;DHT22;36966;48.064;-0.792;2023-04-29T03:47:49;19.20;57.00
50955;DHT22;36966;48.064;-0.792;2023-04-29T03:50:08;19.20;57.00
50955;DHT22;36966;48.064;-0.792;2023-04-29T03:52:29;19.20;57.10
50955;DHT22;36966;48.064;-0.792;2023-04-29T03:54:49;19.20;57.10
50955;DHT22;36966;48.064;-0.792;2023-04-29T03:57:08;19.20;57.10
50955;DHT22;36966;48.064;-0.792;2023-04-29T03:59:27;19.20;57.00
50955;DHT22;36966;48.064;-0.792;2023-04-29T04:01:47;19.20;57.10
50955;DHT22;36966;48.064;-0.792;2023-04-29T04:04:13;19.20;57.10
50955;DHT22;36966;48.064;-0.792;2023-04-29T04:06:33;19.20;57.10
50955;DHT22;36966;48.064;-0.792;2023-04-29T04:08:55;19.20;57.10
50955;DHT22;36966;48.064;-0.792;2023-04-29T04:11:14;19.20;57.10
50955;DHT22;36966;48.064;-0.792;2023-04-29T04:13:33;19.20;57.10
50955;DHT22;36966;48.064;-0.792;2023-04-29T04:15:53;19.20;57.00
50955;DHT22;36966;48.064;-0.792;2023-04-29T04:18:12;19.20;57.00
50955;DHT22;36966;48.064;-0.792;2023-04-29T04:20:32;19.20;57.00
50955;DHT22;36966;48.064;-0.792;2023-04-29T04:22:51;19.20;57.00
50955;DHT22;36966;48.064;-0.792;2023-04-29T04:25:12;19.20;57.00
50955;DHT22;36966;48.064;-0.792;2023-04-29T04:27:32;19.20;57.00
50955;DHT22;36966;48.064;-0.792;2023-04-29T04:29:54;19.20;56.90
50955;DHT22;36966;48.064;-0.792;2023-04-29T04:32:14;19.20;56.90
50955;DHT22;36966;48.064;-0.792;2023-04-29T04:34:33;19.20;56.90
50955;DHT22;36966;48.064;-0.792;2023-04-29T04:36:52;19.20;56.80
50955;DHT22;36966;48.064;-0.792;2023-04-29T04:39:11;19.20;56.80
50955;DHT22;36966;48.064;-0.792;2023-04-29T04:41:31;19.20;56.80
50955;DHT22;36966;48.064;-0.792;2023-04-29T04:43:51;19.20;56.80
50955;DHT22;36966;48.064;-0.792;2023-04-29T04:46:10;19.20;56.80
50955;DHT22;36966;48.064;-0.792;2023-04-29T04:48:30;19.20;56.80
50955;DHT22;36966;48.064;-0.792;2023-04-29T04:50:50;19.20;56.70
50955;DHT22;36966;48.064;-0.792;2023-04-29T04:53:09;19.20;56.70
50955;DHT22;36966;48.064;-0.792;2023-04-29T04:55:28;19.20;56.70
50955;DHT22;36966;48.064;-0.792;2023-04-29T04:57:49;19.20;56.70
50955;DHT22;36966;48.064;-0.792;2023-04-29T05:00:09;19.20;56.70
50955;DHT22;36966;48.064;-0.792;2023-04-29T05:02:28;19.20;56.60
50955;DHT22;36966;48.064;-0.792;2023-04-29T05:04:47;19.20;56.60
50955;DHT22;36966;48.064;-0.792;2023-04-29T05:07:07;19.20;56.60
50955;DHT22;36966;48.064;-0.792;2023-04-29T05:09:28;19.20;56.60
50955;DHT22;36966;48.064;-0.792;2023-04-29T05:11:48;19.20;56.60
50955;DHT22;36966;48.064;-0.792;2023-04-29T05:14:07;19.20;56.70
50955;DHT22;36966;48.064;-0.792;2023-04-29T05:16:26;19.20;56.60
50955;DHT22;36966;48.064;-0.792;2023-04-29T05:18:46;19.20;56.60
50955;DHT22;36966;48.064;-0.792;2023-04-29T05:21:05;19.20;56.50
50955;DHT22;36966;48.064;-0.792;2023-04-29T05:23:24;19.20;56.60
50955;DHT22;36966;48.064;-0.792;2023-04-29T05:25:44;19.20;56.50
50955;DHT22;36966;48.064;-0.792;2023-04-29T05:28:03;19.20;56.50
50955;DHT22;36966;48.064;-0.792;2023-04-29T05:30:22;19.20;56.50
50955;DHT22;36966;48.064;-0.792;2023-04-29T05:32:41;19.20;56.50
50955;DHT22;36966;48.064;-0.792;2023-04-29T05:35:00;19.20;56.50
50955;DHT22;36966;48.064;-0.792;2023-04-29T05:37:20;19.20;56.40
50955;DHT22;36966;48.064;-0.792;2023-04-29T05:39:39;19.20;56.50
50955;DHT22;36966;48.064;-0.792;2023-04-29T05:41:59;19.20;56.40
50955;DHT22;36966;48.064;-0.792;2023-04-29T05:44:20;19.20;56.40
50955;DHT22;36966;48.064;-0.792;2023-04-29T05:46:39;19.20;56.40
50955;DHT22;36966;48.064;-0.792;2023-04-29T05:48:58;19.20;56.40
50955;DHT22;36966;48.064;-0.792;2023-04-29T05:51:18;19.20;56.40
50955;DHT22;36966;48.064;-0.792;2023-04-29T05:53:37;19.20;56.40
50955;DHT22;36966;48.064;-0.792;2023-04-29T05:55:58;19.20;56.40
50955;DHT22;36966;48.064;-0.792;2023-04-29T05:58:17;19.20;56.30
50955;DHT22;36966;48.064;-0.792;2023-04-29T06:00:36;19.30;56.20
50955;DHT22;36966;48.064;-0.792;2023-04-29T06:02:56;19.30;56.10
50955;DHT22;36966;48.064;-0.792;2023-04-29T06:05:15;19.30;56.10
50955;DHT22;36966;48.064;-0.792;2023-04-29T06:07:35;19.30;56.10
50955;DHT22;36966;48.064;-0.792;2023-04-29T06:09:54;19.30;56.10
50955;DHT22;36966;48.064;-0.792;2023-04-29T06:12:14;19.30;56.00
50955;DHT22;36966;48.064;-0.792;2023-04-29T06:14:33;19.30;56.00
50955;DHT22;36966;48.064;-0.792;2023-04-29T06:16:52;19.30;56.00
50955;DHT22;36966;48.064;-0.792;2023-04-29T06:19:11;19.30;56.00
50955;DHT22;36966;48.064;-0.792;2023-04-29T06:21:30;19.30;56.00
50955;DHT22;36966;48.064;-0.792;2023-04-29T06:23:50;19.30;55.90
50955;DHT22;36966;48.064;-0.792;2023-04-29T06:26:11;19.30;56.00
50955;DHT22;36966;48.064;-0.792;2023-04-29T06:28:30;19.30;55.90
50955;DHT22;36966;48.064;-0.792;2023-04-29T06:30:49;19.30;55.90
50955;DHT22;36966;48.064;-0.792;2023-04-29T06:33:08;19.30;56.00
50955;DHT22;36966;48.064;-0.792;2023-04-29T06:35:28;19.30;55.90
50955;DHT22;36966;48.064;-0.792;2023-04-29T06:37:47;19.30;55.90
50955;DHT22;36966;48.064;-0.792;2023-04-29T06:40:06;19.30;55.90
50955;DHT22;36966;48.064;-0.792;2023-04-29T06:42:26;19.30;55.90
50955;DHT22;36966;48.064;-0.792;2023-04-29T06:44:45;19.30;56.00
50955;DHT22;36966;48.064;-0.792;2023-04-29T06:47:04;19.20;55.90
50955;DHT22;36966;48.064;-0.792;2023-04-29T06:49:23;19.30;56.00
50955;DHT22;36966;48.064;-0.792;2023-04-29T06:51:42;19.20;55.90
50955;DHT22;36966;48.064;-0.792;2023-04-29T06:54:02;19.30;55.90
50955;DHT22;36966;48.064;-0.792;2023-04-29T06:56:21;19.30;55.90
50955;DHT22;36966;48.064;-0.792;2023-04-29T06:58:42;19.30;55.90
50955;DHT22;36966;48.064;-0.792;2023-04-29T07:01:01;19.30;55.90
50955;DHT22;36966;48.064;-0.792;2023-04-29T07:03:22;19.20;55.90
50955;DHT22;36966;48.064;-0.792;2023-04-29T07:05:41;19.30;55.90
50955;DHT22;36966;48.064;-0.792;2023-04-29T07:08:03;19.20;55.90
50955;DHT22;36966;48.064;-0.792;2023-04-29T07:10:22;19.30;55.90
50955;DHT22;36966;48.064;-0.792;2023-04-29T07:12:41;19.20;55.90
50955;DHT22;36966;48.064;-0.792;2023-04-29T07:15:00;19.20;55.90
50955;DHT22;36966;48.064;-0.792;2023-04-29T07:17:20;19.20;55.90
50955;DHT22;36966;48.064;-0.792;2023-04-29T07:19:39;19.30;55.90
50955;DHT22;36966;48.064;-0.792;2023-04-29T07:21:58;19.20;55.90
50955;DHT22;36966;48.064;-0.792;2023-04-29T07:24:18;19.20;55.90
50955;DHT22;36966;48.064;-0.792;2023-04-29T07:26:37;19.20;55.80
50955;DHT22;36966;48.064;-0.792;2023-04-29T07:28:56;19.20;55.80
50955;DHT22;36966;48.064;-0.792;2023-04-29T07:31:16;19.20;56.20
50955;DHT22;36966;48.064;-0.792;2023-04-29T07:33:35;19.10;56.10
50955;DHT22;36966;48.064;-0.792;2023-04-29T07:35:55;19.10;56.10
50955;DHT22;36966;48.064;-0.792;2023-04-29T07:38:14;19.10;55.90
50955;DHT22;36966;48.064;-0.792;2023-04-29T07:40:33;19.00;55.80
50955;DHT22;36966;48.064;-0.792;2023-04-29T07:42:52;19.10;56.00
50955;DHT22;36966;48.064;-0.792;2023-04-29T07:45:11;19.00;55.80
50955;DHT22;36966;48.064;-0.792;2023-04-29T07:47:32;19.00;55.90
50955;DHT22;36966;48.064;-0.792;2023-04-29T07:49:51;19.00;55.90
50955;DHT22;36966;48.064;-0.792;2023-04-29T07:52:10;19.10;55.90
50955;DHT22;36966;48.064;-0.792;2023-04-29T07:54:30;19.10;55.90
50955;DHT22;36966;48.064;-0.792;2023-04-29T07:56:50;19.00;55.90
50955;DHT22;36966;48.064;-0.792;2023-04-29T07:59:09;19.00;55.90
50955;DHT22;36966;48.064;-0.792;2023-04-29T08:01:28;19.00;56.00
50955;DHT22;36966;48.064;-0.792;2023-04-29T08:03:47;19.00;56.00
50955;DHT22;36966;48.064;-0.792;2023-04-29T08:06:06;19.10;55.90
50955;DHT22;36966;48.064;-0.792;2023-04-29T08:08:25;19.00;56.10
50955;DHT22;36966;48.064;-0.792;2023-04-29T08:10:45;19.00;56.00
50955;DHT22;36966;48.064;-0.792;2023-04-29T08:13:04;19.00;56.10
50955;DHT22;36966;48.064;-0.792;2023-04-29T08:15:23;19.00;56.20
50955;DHT22;36966;48.064;-0.792;2023-04-29T08:17:43;19.00;56.10
50955;DHT22;36966;48.064;-0.792;2023-04-29T08:20:02;19.00;56.20
50955;DHT22;36966;48.064;-0.792;2023-04-29T08:22:21;19.00;56.30
50955;DHT22;36966;48.064;-0.792;2023-04-29T08:24:40;19.00;56.30
50955;DHT22;36966;48.064;-0.792;2023-04-29T08:27:01;19.00;56.30
50955;DHT22;36966;48.064;-0.792;2023-04-29T08:29:23;19.00;56.30
50955;DHT22;36966;48.064;-0.792;2023-04-29T08:31:43;19.00;56.30
50955;DHT22;36966;48.064;-0.792;2023-04-29T08:34:03;19.00;56.30
50955;DHT22;36966;48.064;-0.792;2023-04-29T08:36:22;19.00;56.20
50955;DHT22;36966;48.064;-0.792;2023-04-29T08:38:41;19.00;56.20
50955;DHT22;36966;48.064;-0.792;2023-04-29T08:41:00;19.00;56.20
50955;DHT22;36966;48.064;-0.792;2023-04-29T08:43:20;19.00;56.20
50955;DHT22;36966;48.064;-0.792;2023-04-29T08:45:40;19.00;56.20
50955;DHT22;36966;48.064;-0.792;2023-04-29T08:48:00;19.00;55.90
50955;DHT22;36966;48.064;-0.792;2023-04-29T08:50:20;18.90;56.20
50955;DHT22;36966;48.064;-0.792;2023-04-29T08:52:39;19.00;56.20
50955;DHT22;36966;48.064;-0.792;2023-04-29T08:54:59;18.90;56.10
50955;DHT22;36966;48.064;-0.792;2023-04-29T08:57:20;18.90;56.20
50955;DHT22;36966;48.064;-0.792;2023-04-29T08:59:40;18.90;56.20
50955;DHT22;36966;48.064;-0.792;2023-04-29T09:02:01;18.90;56.30
50955;DHT22;36966;48.064;-0.792;2023-04-29T09:04:54;18.90;56.30
50955;DHT22;36966;48.064;-0.792;2023-04-29T09:07:05;18.90;56.30
50955;DHT22;36966;48.064;-0.792;2023-04-29T09:09:25;19.00;56.30
50955;DHT22;36966;48.064;-0.792;2023-04-29T09:11:48;19.00;56.30
50955;DHT22;36966;48.064;-0.792;2023-04-29T09:14:07;19.00;56.30
50955;DHT22;36966;48.064;-0.792;2023-04-29T09:16:29;19.00;56.30
50955;DHT22;36966;48.064;-0.792;2023-04-29T09:18:49;19.00;56.40
50955;DHT22;36966;48.064;-0.792;2023-04-29T09:21:16;19.00;56.40
50955;DHT22;36966;48.064;-0.792;2023-04-29T09:23:36;19.00;56.40
50955;DHT22;36966;48.064;-0.792;2023-04-29T09:25:55;19.00;56.60
50955;DHT22;36966;48.064;-0.792;2023-04-29T09:28:15;19.00;56.50
50955;DHT22;36966;48.064;-0.792;2023-04-29T09:30:44;19.00;56.60
50955;DHT22;36966;48.064;-0.792;2023-04-29T09:33:04;19.00;56.50
50955;DHT22;36966;48.064;-0.792;2023-04-29T09:35:25;19.00;56.30
50955;DHT22;36966;48.064;-0.792;2023-04-29T09:37:45;19.00;56.30
50955;DHT22;36966;48.064;-0.792;2023-04-29T09:40:04;19.00;56.30
50955;DHT22;36966;48.064;-0.792;2023-04-29T09:42:24;18.90;56.50
50955;DHT22;36966;48.064;-0.792;2023-04-29T09:44:43;19.00;56.40
50955;DHT22;36966;48.064;-0.792;2023-04-29T09:47:04;18.90;56.30
50955;DHT22;36966;48.064;-0.792;2023-04-29T09:49:24;19.00;56.40
50955;DHT22;36966;48.064;-0.792;2023-04-29T09:51:57;18.90;56.30
50955;DHT22;36966;48.064;-0.792;2023-04-29T09:54:21;19.00;56.40
50955;DHT22;36966;48.064;-0.792;2023-04-29T09:56:51;19.00;56.30
50955;DHT22;36966;48.064;-0.792;2023-04-29T09:59:10;19.00;55.80
50955;DHT22;36966;48.064;-0.792;2023-04-29T10:01:29;18.90;56.00
50955;DHT22;36966;48.064;-0.792;2023-04-29T10:03:50;18.90;55.80
50955;DHT22;36966;48.064;-0.792;2023-04-29T10:06:09;19.00;55.90
50955;DHT22;36966;48.064;-0.792;2023-04-29T10:08:29;19.00;55.90
50955;DHT22;36966;48.064;-0.792;2023-04-29T10:10:49;19.00;55.90
50955;DHT22;36966;48.064;-0.792;2023-04-29T10:13:15;19.00;55.80
50955;DHT22;36966;48.064;-0.792;2023-04-29T10:15:37;19.00;56.00
50955;DHT22;36966;48.064;-0.792;2023-04-29T10:20:24;19.10;55.90
50955;DHT22;36966;48.064;-0.792;2023-04-29T10:22:44;19.10;55.90
50955;DHT22;36966;48.064;-0.792;2023-04-29T10:25:05;19.10;55.90
50955;DHT22;36966;48.064;-0.792;2023-04-29T10:27:25;19.10;55.90
50955;DHT22;36966;48.064;-0.792;2023-04-29T10:29:46;19.10;55.90
50955;DHT22;36966;48.064;-0.792;2023-04-29T10:32:06;19.10;55.90
50955;DHT22;36966;48.064;-0.792;2023-04-29T10:34:27;19.20;55.90
50955;DHT22;36966;48.064;-0.792;2023-04-29T10:36:47;19.20;55.90
50955;DHT22;36966;48.064;-0.792;2023-04-29T10:39:08;19.20;55.90
50955;DHT22;36966;48.064;-0.792;2023-04-29T10:41:33;19.20;55.70
50955;DHT22;36966;48.064;-0.792;2023-04-29T10:43:53;19.20;55.90
50955;DHT22;36966;48.064;-0.792;2023-04-29T10:46:16;19.20;55.80
50955;DHT22;36966;48.064;-0.792;2023-04-29T10:48:36;19.20;55.80
50955;DHT22;36966;48.064;-0.792;2023-04-29T10:53:15;19.30;55.90
50955;DHT22;36966;48.064;-0.792;2023-04-29T10:55:37;19.30;55.90
50955;DHT22;36966;48.064;-0.792;2023-04-29T10:57:56;19.30;55.90
50955;DHT22;36966;48.064;-0.792;2023-04-29T11:00:25;19.30;55.90
50955;DHT22;36966;48.064;-0.792;2023-04-29T11:02:45;19.40;55.90
50955;DHT22;36966;48.064;-0.792;2023-04-29T11:05:06;19.40;55.80
50955;DHT22;36966;48.064;-0.792;2023-04-29T11:07:25;19.40;55.80
50955;DHT22;36966;48.064;-0.792;2023-04-29T11:09:49;19.40;55.90
50955;DHT22;36966;48.064;-0.792;2023-04-29T11:12:09;19.50;55.90
50955;DHT22;36966;48.064;-0.792;2023-04-29T11:14:30;19.40;55.70
50955;DHT22;36966;48.064;-0.792;2023-04-29T11:16:50;19.40;55.80
50955;DHT22;36966;48.064;-0.792;2023-04-29T11:19:13;19.40;55.90
50955;DHT22;36966;48.064;-0.792;2023-04-29T11:21:33;19.40;55.90
50955;DHT22;36966;48.064;-0.792;2023-04-29T11:23:53;19.50;55.80
50955;DHT22;36966;48.064;-0.792;2023-04-29T11:26:12;19.40;56.00
50955;DHT22;36966;48.064;-0.792;2023-04-29T11:28:32;19.50;56.50
50955;DHT22;36966;48.064;-0.792;2023-04-29T11:30:51;19.60;56.50
50955;DHT22;36966;48.064;-0.792;2023-04-29T11:33:12;19.60;56.70
50955;DHT22;36966;48.064;-0.792;2023-04-29T11:35:31;19.70;56.30
50955;DHT22;36966;48.064;-0.792;2023-04-29T11:37:50;19.70;56.50
50955;DHT22;36966;48.064;-0.792;2023-04-29T11:40:11;19.80;56.50
50955;DHT22;36966;48.064;-0.792;2023-04-29T11:42:33;19.90;56.20
50955;DHT22;36966;48.064;-0.792;2023-04-29T11:44:53;20.00;56.20
50955;DHT22;36966;48.064;-0.792;2023-04-29T11:47:15;20.00;55.70
50955;DHT22;36966;48.064;-0.792;2023-04-29T11:49:34;20.10;55.70
50955;DHT22;36966;48.064;-0.792;2023-04-29T11:51:55;20.20;55.70
50955;DHT22;36966;48.064;-0.792;2023-04-29T11:54:14;20.20;55.50
50955;DHT22;36966;48.064;-0.792;2023-04-29T11:56:35;20.20;55.60
50955;DHT22;36966;48.064;-0.792;2023-04-29T11:58:55;20.30;55.40
50955;DHT22;36966;48.064;-0.792;2023-04-29T12:01:16;20.40;55.20
50955;DHT22;36966;48.064;-0.792;2023-04-29T12:03:35;20.40;55.30
50955;DHT22;36966;48.064;-0.792;2023-04-29T12:05:54;20.50;55.20
50955;DHT22;36966;48.064;-0.792;2023-04-29T12:08:16;20.50;55.30
50955;DHT22;36966;48.064;-0.792;2023-04-29T12:10:37;20.50;55.10
50955;DHT22;36966;48.064;-0.792;2023-04-29T12:12:56;20.50;54.90
50955;DHT22;36966;48.064;-0.792;2023-04-29T12:15:16;20.50;55.00
50955;DHT22;36966;48.064;-0.792;2023-04-29T12:17:36;20.50;55.00
50955;DHT22;36966;48.064;-0.792;2023-04-29T12:19:55;20.50;54.90
50955;DHT22;36966;48.064;-0.792;2023-04-29T12:22:15;20.50;54.60
50955;DHT22;36966;48.064;-0.792;2023-04-29T12:24:35;20.50;54.70
50955;DHT22;36966;48.064;-0.792;2023-04-29T12:26:54;20.50;54.40
50955;DHT22;36966;48.064;-0.792;2023-04-29T12:29:14;20.50;54.40
50955;DHT22;36966;48.064;-0.792;2023-04-29T12:31:34;20.50;54.50
50955;DHT22;36966;48.064;-0.792;2023-04-29T12:33:54;20.50;54.70
50955;DHT22;36966;48.064;-0.792;2023-04-29T12:36:15;20.50;54.70
50955;DHT22;36966;48.064;-0.792;2023-04-29T12:38:35;20.40;55.00
50955;DHT22;36966;48.064;-0.792;2023-04-29T12:40:58;20.40;55.00
50955;DHT22;36966;48.064;-0.792;2023-04-29T12:43:18;20.50;54.80
50955;DHT22;36966;48.064;-0.792;2023-04-29T12:45:38;20.50;54.80
50955;DHT22;36966;48.064;-0.792;2023-04-29T12:47:58;20.50;54.90
50955;DHT22;36966;48.064;-0.792;2023-04-29T12:50:18;20.40;55.00
50955;DHT22;36966;48.064;-0.792;2023-04-29T12:52:39;20.40;55.00
50955;DHT22;36966;48.064;-0.792;2023-04-29T12:54:59;20.40;54.90
50955;DHT22;36966;48.064;-0.792;2023-04-29T12:57:19;20.40;54.90
50955;DHT22;36966;48.064;-0.792;2023-04-29T12:59:38;20.50;54.70
50955;DHT22;36966;48.064;-0.792;2023-04-29T13:02:00;20.40;54.80
50955;DHT22;36966;48.064;-0.792;2023-04-29T13:04:19;20.50;54.90
50955;DHT22;36966;48.064;-0.792;2023-04-29T13:06:38;20.50;54.90
50955;DHT22;36966;48.064;-0.792;2023-04-29T13:08:58;20.50;54.90
50955;DHT22;36966;48.064;-0.792;2023-04-29T13:11:18;20.40;55.00
50955;DHT22;36966;48.064;-0.792;2023-04-29T13:13:37;20.50;55.10
50955;DHT22;36966;48.064;-0.792;2023-04-29T13:15:57;20.50;55.00
50955;DHT22;36966;48.064;-0.792;2023-04-29T13:18:18;20.60;54.30
50955;DHT22;36966;48.064;-0.792;2023-04-29T13:20:37;20.50;54.40
50955;DHT22;36966;48.064;-0.792;2023-04-29T13:22:56;20.50;54.50
50955;DHT22;36966;48.064;-0.792;2023-04-29T13:25:15;20.50;54.60
50955;DHT22;36966;48.064;-0.792;2023-04-29T13:27:35;20.50;54.60
50955;DHT22;36966;48.064;-0.792;2023-04-29T13:29:54;20.50;54.70
50955;DHT22;36966;48.064;-0.792;2023-04-29T13:32:16;20.50;54.90
50955;DHT22;36966;48.064;-0.792;2023-04-29T13:34:36;20.50;54.90
50955;DHT22;36966;48.064;-0.792;2023-04-29T13:36:55;20.50;54.90
50955;DHT22;36966;48.064;-0.792;2023-04-29T13:39:14;20.50;54.80
50955;DHT22;36966;48.064;-0.792;2023-04-29T13:41:34;20.50;54.80
50955;DHT22;36966;48.064;-0.792;2023-04-29T13:43:53;20.50;54.90
50955;DHT22;36966;48.064;-0.792;2023-04-29T13:46:13;20.50;54.90
50955;DHT22;36966;48.064;-0.792;2023-04-29T13:48:32;20.50;55.00
50955;DHT22;36966;48.064;-0.792;2023-04-29T13:50:52;20.50;54.90
50955;DHT22;36966;48.064;-0.792;2023-04-29T13:53:11;20.60;55.00
50955;DHT22;36966;48.064;-0.792;2023-04-29T13:55:30;20.50;54.90
50955;DHT22;36966;48.064;-0.792;2023-04-29T13:57:52;20.50;54.90
50955;DHT22;36966;48.064;-0.792;2023-04-29T14:00:11;20.50;54.90
50955;DHT22;36966;48.064;-0.792;2023-04-29T14:02:31;20.50;54.80
50955;DHT22;36966;48.064;-0.792;2023-04-29T14:04:50;20.60;54.80
50955;DHT22;36966;48.064;-0.792;2023-04-29T14:07:09;20.60;54.90
50955;DHT22;36966;48.064;-0.792;2023-04-29T14:09:29;20.60;54.80
50955;DHT22;36966;48.064;-0.792;2023-04-29T14:11:48;20.60;54.80
50955;DHT22;36966;48.064;-0.792;2023-04-29T14:14:08;20.60;54.80
50955;DHT22;36966;48.064;-0.792;2023-04-29T14:16:28;20.60;54.80
50955;DHT22;36966;48.064;-0.792;2023-04-29T14:18:47;20.60;54.80
50955;DHT22;36966;48.064;-0.792;2023-04-29T14:21:07;20.60;54.80
50955;DHT22;36966;48.064;-0.792;2023-04-29T14:23:27;20.60;54.90
50955;DHT22;36966;48.064;-0.792;2023-04-29T14:25:47;20.60;54.90
50955;DHT22;36966;48.064;-0.792;2023-04-29T14:28:06;20.60;54.70
50955;DHT22;36966;48.064;-0.792;2023-04-29T14:30:25;20.60;54.80
50955;DHT22;36966;48.064;-0.792;2023-04-29T14:32:44;20.60;54.90
50955;DHT22;36966;48.064;-0.792;2023-04-29T14:35:04;20.60;55.00
50955;DHT22;36966;48.064;-0.792;2023-04-29T14:37:24;20.60;55.10
50955;DHT22;36966;48.064;-0.792;2023-04-29T14:39:45;20.50;55.20
50955;DHT22;36966;48.064;-0.792;2023-04-29T14:42:04;20.50;55.20
50955;DHT22;36966;48.064;-0.792;2023-04-29T14:44:24;20.50;55.10
50955;DHT22;36966;48.064;-0.792;2023-04-29T14:46:43;20.50;55.10